createdAt,value
2022-11-10T00:00:51.530Z,34.38
2022-11-10T00:01:55.003Z,35.08
2022-11-10T00:03:04.354Z,34.55
2022-11-10T00:04:06.734Z,33.53
2022-11-10T00:05:13.851Z,35.65
2022-11-10T00:06:20.479Z,35.50
2022-11-10T00:07:30.778Z,36.75
2022-11-10T00:08:35.746Z,35.88
2022-11-10T00:09:46.647Z,35.55
2022-11-10T00:12:01.829Z,34.97
2022-11-10T00:13:17.379Z,35.05
2022-11-10T00:14:41.874Z,35.55
2022-11-10T00:16:05.563Z,34.58
2022-11-10T00:17:10.251Z,35.20
2022-11-10T00:18:17.016Z,35.03
2022-11-10T00:19:21.332Z,35.35
2022-11-10T00:20:24.926Z,35.17
2022-11-10T00:21:27.426Z,36.03
2022-11-10T00:22:29.481Z,37.72
2022-11-10T00:23:31.503Z,36.08
2022-11-10T00:24:33.412Z,35.35
2022-11-10T00:25:36.217Z,36.08
2022-11-10T00:26:38.286Z,37.10
2022-11-10T00:27:40.449Z,36.65
2022-11-10T00:28:44.382Z,38.13
2022-11-10T00:29:46.492Z,37.13
2022-11-10T00:30:50.262Z,37.42
2022-11-10T00:31:53.234Z,37.83
2022-11-10T00:32:57.770Z,37.90
2022-11-10T00:34:01.564Z,36.72
2022-11-10T00:35:08.144Z,35.53
2022-11-10T00:36:17.616Z,35.72
2022-11-10T00:37:27.854Z,39.20
2022-11-10T00:38:36.838Z,36.67
2022-11-10T00:39:39.121Z,37.63
2022-11-10T00:41:09.099Z,38.28
2022-11-10T00:42:25.246Z,35.50
2022-11-10T00:43:37.525Z,36.47
2022-11-10T00:49:07.128Z,36.42
2022-11-10T00:50:19.815Z,36.42
2022-11-10T00:51:54.758Z,35.38
2022-11-10T00:52:59.511Z,36.17
2022-11-10T00:54:25.617Z,36.97
2022-11-10T00:55:51.607Z,37.13
2022-11-10T00:57:17.847Z,37.13
2022-11-10T00:58:25.368Z,37.58
2022-11-10T00:59:59.616Z,36.72
2022-11-10T01:01:32.611Z,36.97
2022-11-10T01:02:42.692Z,34.88
2022-11-10T01:04:08.536Z,36.95
2022-11-10T01:06:44.306Z,35.17
2022-11-10T01:08:03.721Z,37.95
2022-11-10T01:09:36.512Z,34.65
2022-11-10T01:11:04.131Z,34.25
2022-11-10T01:12:15.734Z,34.33
2022-11-10T01:13:45.506Z,35.35
2022-11-10T01:15:01.838Z,34.60
2022-11-10T01:16:19.854Z,35.92
2022-11-10T01:17:29.256Z,35.70
2022-11-10T01:18:33.514Z,35.70
2022-11-10T01:19:45.580Z,36.85
2022-11-10T01:20:59.513Z,35.13
2022-11-10T01:22:17.793Z,36.47
2022-11-10T01:23:33.287Z,36.90
2022-11-10T01:24:44.458Z,35.92
2022-11-10T01:26:47.535Z,37.40
2022-11-10T01:27:55.738Z,35.15
2022-11-10T01:29:06.521Z,35.00
2022-11-10T01:32:16.541Z,35.75
2022-11-10T01:33:31.679Z,35.17
2022-11-10T01:37:57.322Z,36.85
2022-11-10T01:39:06.091Z,36.83
2022-11-10T01:40:26.007Z,37.60
2022-11-10T01:41:28.063Z,37.80
2022-11-10T01:45:26.868Z,34.40
2022-11-10T01:46:42.899Z,35.60
2022-11-10T01:47:51.656Z,35.55
2022-11-10T01:49:20.795Z,38.10
2022-11-10T01:50:39.016Z,37.15
2022-11-10T01:52:24.236Z,37.47
2022-11-10T01:53:39.122Z,34.55
2022-11-10T01:55:12.703Z,36.35
2022-11-10T01:56:17.533Z,35.53
2022-11-10T01:59:07.310Z,36.08
2022-11-10T02:01:51.102Z,35.88
2022-11-10T02:03:37.676Z,34.63
2022-11-10T02:04:52.796Z,35.90
2022-11-10T02:06:10.544Z,38.22
2022-11-10T02:07:38.731Z,36.22
2022-11-10T02:08:52.156Z,36.13
2022-11-10T02:10:06.864Z,34.95
2022-11-10T02:11:28.881Z,36.03
2022-11-10T02:12:42.408Z,35.85
2022-11-10T02:13:51.287Z,34.33
2022-11-10T02:14:57.684Z,36.55
2022-11-10T02:16:03.564Z,37.33
2022-11-10T02:17:06.880Z,35.65
2022-11-10T02:18:18.886Z,37.42
2022-11-10T02:23:57.722Z,36.28
2022-11-10T02:25:08.396Z,35.90
2022-11-10T02:26:24.823Z,36.03
2022-11-10T02:27:30.719Z,37.55
2022-11-10T02:28:45.095Z,36.22
2022-11-10T02:30:09.237Z,34.42
2022-11-10T02:34:08.784Z,38.25
2022-11-10T02:35:44.453Z,34.25
2022-11-10T02:36:49.250Z,34.42
2022-11-10T02:37:55.449Z,33.78
2022-11-10T02:39:04.858Z,35.78
2022-11-10T02:40:47.229Z,36.35
2022-11-10T02:41:57.167Z,34.78
2022-11-10T02:43:22.973Z,33.65
2022-11-10T02:44:28.079Z,34.30
2022-11-10T02:45:36.935Z,35.22
2022-11-10T02:46:41.303Z,35.90
2022-11-10T02:47:45.209Z,36.30
2022-11-10T02:48:53.137Z,35.97
2022-11-10T02:49:56.887Z,36.20
2022-11-10T02:51:03.997Z,34.28
2022-11-10T02:52:12.461Z,38.15
2022-11-10T02:53:18.105Z,36.65
2022-11-10T02:54:32.229Z,35.65
2022-11-10T02:55:49.451Z,37.25
2022-11-10T02:57:02.821Z,34.45
2022-11-10T02:58:12.831Z,37.28
2022-11-10T02:59:23.985Z,35.70
2022-11-10T03:00:27.339Z,36.22
2022-11-10T03:01:30.828Z,36.67
2022-11-10T03:02:45.516Z,35.72
2022-11-10T03:03:59.866Z,36.03
2022-11-10T03:05:02.773Z,36.40
2022-11-10T03:06:13.529Z,36.83
2022-11-10T03:07:23.571Z,35.70
2022-11-10T03:08:28.243Z,36.40
2022-11-10T03:09:30.040Z,37.40
2022-11-10T03:10:44.464Z,37.33
2022-11-10T03:11:58.197Z,36.33
2022-11-10T03:13:05.039Z,36.05
2022-11-10T03:14:10.755Z,37.17
2022-11-10T03:15:22.142Z,36.95
2022-11-10T03:16:48.263Z,37.42
2022-11-10T03:17:50.931Z,37.00
2022-11-10T03:19:01.499Z,36.63
2022-11-10T03:20:04.790Z,36.97
2022-11-10T03:21:13.577Z,36.38
2022-11-10T03:22:16.579Z,38.45
2022-11-10T03:23:21.071Z,39.15
2022-11-10T03:24:33.653Z,38.45
2022-11-10T03:25:42.314Z,40.20
2022-11-10T03:26:45.397Z,36.92
2022-11-10T03:27:53.900Z,38.78
2022-11-10T03:28:56.213Z,38.05
2022-11-10T03:30:08.030Z,39.03
2022-11-10T03:31:16.467Z,36.92
2022-11-10T03:32:35.139Z,34.97
2022-11-10T03:33:38.814Z,36.03
2022-11-10T03:34:45.383Z,36.33
2022-11-10T03:35:51.255Z,36.58
2022-11-10T03:36:57.722Z,35.50
2022-11-10T03:38:05.625Z,34.47
2022-11-10T03:39:09.821Z,34.03
2022-11-10T03:40:22.990Z,33.75
2022-11-10T03:41:31.483Z,33.72
2022-11-10T03:42:35.773Z,34.72
2022-11-10T03:43:50.036Z,37.20
2022-11-10T03:44:52.360Z,34.83
2022-11-10T03:45:54.908Z,35.72
2022-11-10T03:47:05.505Z,35.10
2022-11-10T03:48:10.696Z,36.42
2022-11-10T03:49:14.365Z,35.75
2022-11-10T03:50:25.567Z,33.63
2022-11-10T03:51:28.908Z,36.00
2022-11-10T03:52:31.431Z,35.97
2022-11-10T03:53:45.401Z,35.20
2022-11-10T03:54:59.276Z,36.40
2022-11-10T03:57:33.809Z,37.15
2022-11-10T03:58:50.338Z,37.67
2022-11-10T04:00:08.996Z,37.10
2022-11-10T04:01:34.690Z,38.53
2022-11-10T04:02:45.237Z,39.42
2022-11-10T04:04:10.029Z,40.38
2022-11-10T04:07:53.329Z,38.65
2022-11-10T04:09:39.979Z,38.08
2022-11-10T04:16:48.441Z,39.47
2022-11-10T04:21:31.126Z,38.67
2022-11-10T04:24:58.107Z,40.10
2022-11-10T04:26:51.285Z,42.53
2022-11-10T04:28:59.398Z,39.95
2022-11-10T04:36:44.477Z,40.45
2022-11-10T04:48:18.830Z,40.53
2022-11-10T04:49:50.131Z,40.88
2022-11-10T04:51:30.565Z,40.83
2022-11-10T04:54:03.708Z,41.58
2022-11-10T04:55:24.531Z,40.33
2022-11-10T04:57:01.349Z,41.63
2022-11-10T04:58:04.783Z,41.95
2022-11-10T04:59:16.792Z,42.13
2022-11-10T05:00:23.796Z,40.63
2022-11-10T05:01:39.258Z,42.58
2022-11-10T05:02:49.682Z,42.30
2022-11-10T05:09:12.143Z,42.72
2022-11-10T05:10:17.065Z,42.50
2022-11-10T05:12:03.503Z,43.13
2022-11-10T05:13:06.353Z,42.95
2022-11-10T05:15:58.314Z,41.40
2022-11-10T05:18:31.693Z,41.15
2022-11-10T05:19:44.900Z,41.60
2022-11-10T05:20:57.492Z,41.42
2022-11-10T05:22:11.546Z,40.85
2022-11-10T05:27:47.892Z,41.17
2022-11-10T05:28:59.562Z,40.47
2022-11-10T05:30:19.060Z,40.42
2022-11-10T05:34:27.594Z,40.63
2022-11-10T05:35:49.096Z,40.88
2022-11-10T05:37:15.997Z,42.60
2022-11-10T05:38:50.127Z,43.97
2022-11-10T05:39:57.145Z,42.90
2022-11-10T05:41:29.231Z,44.58
2022-11-10T05:42:38.911Z,44.28
2022-11-10T05:43:42.385Z,43.97
2022-11-10T05:45:00.823Z,42.72
2022-11-10T05:46:20.516Z,41.78
2022-11-10T05:48:13.124Z,42.05
2022-11-10T05:50:49.869Z,42.03
2022-11-10T05:52:07.839Z,43.20
2022-11-10T05:53:15.710Z,42.13
2022-11-10T05:54:22.049Z,43.55
2022-11-10T05:55:44.027Z,41.00
2022-11-10T05:57:37.791Z,44.83
2022-11-10T05:59:09.105Z,43.70
2022-11-10T06:00:45.785Z,42.60
2022-11-10T06:02:08.007Z,41.33
2022-11-10T06:03:20.360Z,42.95
2022-11-10T06:04:32.908Z,40.38
2022-11-10T06:05:43.855Z,42.75
2022-11-10T06:06:52.269Z,45.33
2022-11-10T06:07:58.280Z,44.55
2022-11-10T06:09:02.472Z,45.15
2022-11-10T06:10:05.856Z,43.95
2022-11-10T06:11:11.840Z,45.78
2022-11-10T06:12:18.485Z,43.53
2022-11-10T06:13:24.645Z,43.20
2022-11-10T06:14:27.856Z,40.78
2022-11-10T06:15:35.359Z,41.22
2022-11-10T06:16:40.627Z,41.78
2022-11-10T06:17:43.774Z,42.38
2022-11-10T06:18:53.949Z,42.00
2022-11-10T06:19:55.935Z,41.97
2022-11-10T06:21:06.069Z,42.45
2022-11-10T06:22:17.466Z,42.30
2022-11-10T06:23:20.034Z,43.42
2022-11-10T06:24:28.340Z,41.97
2022-11-10T06:25:34.009Z,42.30
2022-11-10T06:26:44.292Z,41.50
2022-11-10T06:27:51.901Z,42.20
2022-11-10T06:29:01.589Z,42.70
2022-11-10T06:30:04.875Z,45.38
2022-11-10T06:31:17.899Z,42.78
2022-11-10T06:32:23.829Z,41.08
2022-11-10T06:33:36.968Z,40.78
2022-11-10T06:34:49.492Z,43.50
2022-11-10T06:35:58.174Z,40.60
2022-11-10T06:37:03.730Z,41.08
2022-11-10T06:38:17.926Z,39.58
2022-11-10T06:39:35.284Z,41.63
2022-11-10T06:40:44.048Z,37.80
2022-11-10T06:41:52.462Z,39.45
2022-11-10T06:43:01.558Z,40.22
2022-11-10T06:44:07.051Z,38.90
2022-11-10T06:45:10.653Z,40.40
2022-11-10T06:46:26.603Z,39.63
2022-11-10T06:47:51.274Z,40.58
2022-11-10T06:48:59.149Z,41.03
2022-11-10T06:50:11.336Z,40.40
2022-11-10T06:51:15.718Z,41.70
2022-11-10T06:52:23.356Z,41.50
2022-11-10T06:53:27.405Z,41.42
2022-11-10T06:54:29.962Z,42.40
2022-11-10T06:55:32.691Z,42.28
2022-11-10T06:56:35.996Z,41.78
2022-11-10T06:57:46.711Z,39.17
2022-11-10T06:59:01.089Z,41.05
2022-11-10T07:02:10.116Z,37.10
2022-11-10T07:03:25.807Z,39.33
2022-11-10T07:04:28.882Z,39.28
2022-11-10T07:05:34.157Z,38.42
2022-11-10T07:06:38.563Z,38.95
2022-11-10T07:07:52.412Z,39.50
2022-11-10T07:08:56.124Z,38.90
2022-11-10T07:10:01.609Z,40.42
2022-11-10T07:11:09.164Z,37.63
2022-11-10T07:12:12.123Z,38.90
2022-11-10T07:13:15.345Z,38.65
2022-11-10T07:14:17.743Z,37.80
2022-11-10T07:15:22.007Z,38.97
2022-11-10T07:16:24.758Z,39.00
2022-11-10T07:17:27.613Z,38.83
2022-11-10T07:18:33.875Z,38.80
2022-11-10T07:19:35.912Z,38.72
2022-11-10T07:20:39.624Z,37.50
2022-11-10T07:21:45.175Z,35.75
2022-11-10T07:22:48.205Z,37.45
2022-11-10T07:23:52.252Z,36.72
2022-11-10T07:24:55.587Z,38.28
2022-11-10T07:26:20.085Z,36.63
2022-11-10T07:27:25.766Z,33.65
2022-11-10T07:28:46.127Z,36.78
2022-11-10T07:29:50.968Z,36.08
2022-11-10T07:30:56.369Z,34.80
2022-11-10T07:32:10.340Z,36.50
2022-11-10T07:33:15.188Z,35.20
2022-11-10T07:34:20.678Z,34.72
2022-11-10T07:35:29.187Z,37.13
2022-11-10T07:36:38.584Z,37.35
2022-11-10T07:43:54.602Z,31.70
2022-11-10T07:46:42.996Z,32.67
2022-11-10T07:48:21.292Z,35.67
2022-11-10T07:50:03.335Z,32.25
2022-11-10T07:54:14.780Z,33.22
2022-11-10T07:55:39.875Z,30.90
2022-11-10T07:56:58.373Z,29.98
2022-11-10T07:58:36.275Z,30.50
2022-11-10T07:59:42.016Z,29.15
2022-11-10T08:00:47.502Z,28.60
2022-11-10T08:01:51.390Z,29.60
2022-11-10T08:02:56.137Z,30.73
2022-11-10T08:04:04.764Z,29.05
2022-11-10T08:05:09.756Z,30.15
2022-11-10T08:06:14.472Z,29.00
2022-11-10T08:07:23.497Z,29.95
2022-11-10T08:08:31.612Z,29.08
2022-11-10T08:09:34.598Z,30.08
2022-11-10T08:10:44.783Z,29.80
2022-11-10T08:11:50.931Z,28.02
2022-11-10T08:12:57.280Z,28.38
2022-11-10T08:14:02.073Z,28.27
2022-11-10T08:15:08.179Z,28.35
2022-11-10T08:16:11.635Z,29.50
2022-11-10T08:17:20.456Z,28.92
2022-11-10T08:18:33.892Z,30.45
2022-11-10T08:19:37.965Z,29.08
2022-11-10T08:20:43.294Z,27.85
2022-11-10T08:21:48.076Z,28.77
2022-11-10T08:23:04.775Z,29.38
2022-11-10T08:24:27.087Z,27.67
2022-11-10T08:25:34.915Z,28.48
2022-11-10T08:26:42.277Z,27.63
2022-11-10T08:27:49.549Z,27.40
2022-11-10T08:28:59.305Z,29.48
2022-11-10T08:30:03.423Z,30.67
2022-11-10T08:31:06.331Z,28.48
2022-11-10T08:32:16.729Z,27.63
2022-11-10T08:35:33.164Z,26.90
2022-11-10T08:36:42.501Z,26.83
2022-11-10T08:39:45.077Z,24.73
2022-11-10T08:41:15.833Z,26.45
2022-11-10T08:42:33.944Z,26.08
2022-11-10T08:43:36.776Z,27.00
2022-11-10T08:44:43.315Z,26.13
2022-11-10T08:45:55.775Z,27.17
2022-11-10T08:47:01.187Z,26.42
2022-11-10T08:48:19.533Z,26.13
2022-11-10T08:49:21.348Z,25.30
2022-11-10T08:50:23.596Z,27.00
2022-11-10T08:51:30.360Z,27.05
2022-11-10T08:52:52.011Z,26.50
2022-11-10T08:53:54.260Z,25.98
2022-11-10T08:54:57.909Z,25.77
2022-11-10T08:56:01.305Z,25.73
2022-11-10T08:57:05.466Z,25.90
2022-11-10T08:58:21.337Z,25.13
2022-11-10T08:59:25.508Z,26.73
2022-11-10T09:00:29.309Z,25.58
2022-11-10T09:01:33.173Z,27.42
2022-11-10T09:02:38.506Z,26.45
2022-11-10T09:03:40.683Z,28.17
2022-11-10T09:04:43.389Z,27.15
2022-11-10T09:05:55.222Z,28.60
2022-11-10T09:07:02.875Z,28.08
2022-11-10T09:08:08.168Z,28.73
2022-11-10T09:09:23.687Z,30.73
2022-11-10T09:10:29.941Z,26.55
2022-11-10T09:11:32.045Z,26.58
2022-11-10T09:12:35.727Z,24.90
2022-11-10T09:13:37.888Z,25.45
2022-11-10T09:14:40.952Z,26.98
2022-11-10T09:15:46.228Z,25.90
2022-11-10T09:16:48.121Z,26.05
2022-11-10T09:17:49.937Z,24.88
2022-11-10T09:18:56.371Z,27.30
2022-11-10T09:19:59.245Z,27.17
2022-11-10T09:21:11.951Z,26.27
2022-11-10T09:22:21.534Z,24.35
2022-11-10T09:23:27.642Z,25.38
2022-11-10T09:24:39.199Z,25.50
2022-11-10T09:26:03.891Z,26.38
2022-11-10T09:27:09.717Z,26.10
2022-11-10T09:28:14.639Z,26.63
2022-11-10T09:29:20.698Z,24.80
2022-11-10T09:32:03.187Z,24.80
2022-11-10T09:33:11.632Z,25.02
2022-11-10T09:34:18.172Z,23.50
2022-11-10T09:35:21.883Z,24.08
2022-11-10T09:36:24.029Z,24.30
2022-11-10T09:37:26.800Z,23.25
2022-11-10T09:38:31.100Z,24.88
2022-11-10T09:39:34.381Z,24.00
2022-11-10T09:40:53.852Z,22.33
2022-11-10T09:42:04.068Z,23.77
2022-11-10T09:43:48.429Z,22.42
2022-11-10T09:45:15.872Z,23.77
2022-11-10T09:46:28.002Z,23.00
2022-11-10T09:48:06.466Z,21.42
2022-11-10T09:49:36.901Z,23.05
2022-11-10T09:50:57.074Z,22.90
2022-11-10T09:52:02.223Z,24.52
2022-11-10T09:53:09.665Z,22.70
2022-11-10T09:54:42.184Z,23.95
2022-11-10T09:55:52.606Z,24.40
2022-11-10T09:57:00.522Z,22.67
2022-11-10T09:58:03.883Z,22.48
2022-11-10T09:59:19.790Z,21.58
2022-11-10T10:00:31.068Z,23.13
2022-11-10T10:01:57.158Z,22.90
2022-11-10T10:03:04.300Z,23.83
2022-11-10T10:04:13.599Z,22.35
2022-11-10T10:05:37.359Z,21.80
2022-11-10T10:07:09.966Z,21.40
2022-11-10T10:08:21.748Z,20.60
2022-11-10T10:09:38.954Z,20.48
2022-11-10T10:10:55.521Z,22.30
2022-11-10T10:12:18.041Z,19.35
2022-11-10T10:14:05.826Z,22.08
2022-11-10T10:15:35.786Z,21.15
2022-11-10T10:16:49.432Z,21.50
2022-11-10T10:17:58.757Z,20.73
2022-11-10T10:19:10.254Z,20.65
2022-11-10T10:20:27.692Z,21.85
2022-11-10T10:22:04.499Z,19.92
2022-11-10T10:24:07.115Z,21.83
2022-11-10T10:25:04.502Z,21.45
2022-11-10T10:26:14.636Z,19.60
2022-11-10T10:27:24.325Z,20.95
2022-11-10T10:28:40.236Z,20.35
2022-11-10T10:30:07.305Z,20.10
2022-11-10T10:31:40.831Z,19.85
2022-11-10T10:32:43.977Z,20.27
2022-11-10T10:33:51.417Z,20.63
2022-11-10T10:34:53.690Z,20.35
2022-11-10T10:35:56.487Z,20.73
2022-11-10T10:37:00.813Z,19.90
2022-11-10T10:38:10.240Z,19.35
2022-11-10T10:39:17.449Z,20.88
2022-11-10T10:40:27.973Z,20.10
2022-11-10T10:41:33.905Z,20.00
2022-11-10T10:42:38.095Z,20.70
2022-11-10T10:43:48.124Z,20.15
2022-11-10T10:45:15.472Z,21.35
2022-11-10T10:46:19.869Z,20.40
2022-11-10T10:47:39.141Z,21.40
2022-11-10T10:48:41.917Z,20.83
2022-11-10T10:49:44.495Z,20.40
2022-11-10T10:50:54.045Z,21.30
2022-11-10T10:52:23.202Z,21.88
2022-11-10T10:53:28.357Z,19.88
2022-11-10T10:54:39.418Z,20.35
2022-11-10T10:56:17.978Z,20.80
2022-11-10T10:57:25.831Z,19.92
2022-11-10T10:58:32.036Z,20.25
2022-11-10T10:59:43.929Z,21.60
2022-11-10T11:00:53.798Z,21.27
2022-11-10T11:01:56.409Z,21.55
2022-11-10T11:03:09.480Z,20.98
2022-11-10T11:04:28.571Z,21.08
2022-11-10T11:05:36.582Z,19.95
2022-11-10T11:06:38.888Z,20.65
2022-11-10T11:08:27.541Z,20.75
2022-11-10T11:09:45.981Z,20.55
2022-11-10T11:10:48.043Z,23.83
2022-11-10T11:12:01.996Z,21.63
2022-11-10T11:13:25.280Z,21.10
2022-11-10T11:14:31.382Z,21.10
2022-11-10T11:15:33.742Z,20.58
2022-11-10T11:16:51.286Z,20.92
2022-11-10T11:18:03.481Z,21.83
2022-11-10T11:19:12.267Z,21.75
2022-11-10T11:20:15.764Z,21.88
2022-11-10T11:21:21.050Z,22.45
2022-11-10T11:23:08.704Z,21.98
2022-11-10T11:24:38.683Z,20.63
2022-11-10T11:25:48.619Z,20.65
2022-11-10T11:26:58.507Z,21.25
2022-11-10T11:28:26.560Z,21.40
2022-11-10T11:29:54.541Z,21.13
2022-11-10T11:31:01.649Z,22.40
2022-11-10T11:32:41.315Z,20.92
2022-11-10T11:34:17.264Z,21.13
2022-11-10T11:35:43.207Z,21.48
2022-11-10T11:37:11.133Z,22.55
2022-11-10T11:38:26.348Z,22.23
2022-11-10T11:40:15.514Z,22.33
2022-11-10T11:41:52.077Z,23.02
2022-11-10T11:43:10.070Z,24.67
2022-11-10T11:44:38.286Z,25.45
2022-11-10T11:45:53.509Z,25.98
2022-11-10T11:46:55.484Z,25.30
2022-11-10T11:48:05.974Z,24.50
2022-11-10T11:49:32.245Z,26.13
2022-11-10T11:50:44.260Z,25.98
2022-11-10T11:51:55.539Z,25.90
2022-11-10T11:53:25.806Z,27.40
2022-11-10T11:54:30.080Z,28.38
2022-11-10T11:56:11.167Z,27.23
2022-11-10T11:57:45.808Z,25.58
2022-11-10T11:59:25.787Z,25.75
2022-11-10T12:00:36.292Z,23.83
2022-11-10T12:01:50.091Z,23.38
2022-11-10T12:03:03.976Z,23.08
2022-11-10T12:04:21.013Z,22.90
2022-11-10T12:05:52.684Z,22.85
2022-11-10T12:08:16.185Z,20.67
2022-11-10T12:09:25.955Z,21.52
2022-11-10T12:10:50.919Z,21.77
2022-11-10T12:12:14.496Z,21.92
2022-11-10T12:13:30.894Z,21.92
2022-11-10T12:15:03.875Z,22.17
2022-11-10T12:16:15.049Z,21.45
2022-11-10T12:17:38.200Z,21.35
2022-11-10T12:18:54.200Z,22.08
2022-11-10T12:19:56.057Z,21.77
2022-11-10T12:21:19.386Z,20.60
2022-11-10T12:22:37.041Z,21.63
2022-11-10T12:23:58.313Z,22.63
2022-11-10T12:25:00.785Z,22.25
2022-11-10T12:26:22.904Z,22.10
2022-11-10T12:27:30.943Z,24.20
2022-11-10T12:29:14.189Z,22.33
2022-11-10T12:30:18.046Z,21.35
2022-11-10T12:31:23.544Z,22.88
2022-11-10T12:32:37.692Z,22.10
2022-11-10T12:33:44.851Z,21.92
2022-11-10T12:35:19.363Z,22.27
2022-11-10T12:36:24.439Z,22.27
2022-11-10T12:37:37.663Z,21.88
2022-11-10T12:39:08.636Z,22.55
2022-11-10T12:40:18.940Z,23.88
2022-11-10T12:41:24.077Z,22.60
2022-11-10T12:42:30.478Z,22.10
2022-11-10T12:44:03.439Z,23.85
2022-11-10T12:45:21.693Z,23.80
2022-11-10T12:46:24.001Z,22.42
2022-11-10T12:47:31.995Z,22.77
2022-11-10T12:49:00.936Z,24.08
2022-11-10T12:50:29.273Z,24.17
2022-11-10T12:51:44.583Z,24.67
2022-11-10T12:52:56.637Z,25.00
2022-11-10T12:54:00.238Z,24.45
2022-11-10T12:55:02.177Z,24.38
2022-11-10T12:56:29.291Z,25.60
2022-11-10T12:57:32.305Z,24.83
2022-11-10T12:58:37.578Z,25.17
2022-11-10T12:59:41.810Z,24.73
2022-11-10T13:00:59.516Z,24.55
2022-11-10T13:02:17.718Z,24.02
2022-11-10T13:03:37.332Z,24.50
2022-11-10T13:04:46.050Z,26.30
2022-11-10T13:05:59.520Z,24.15
2022-11-10T13:07:59.275Z,25.55
2022-11-10T13:09:50.052Z,24.27
2022-11-10T13:11:02.067Z,23.33
2022-11-10T13:12:27.535Z,23.17
2022-11-10T13:13:32.269Z,23.63
2022-11-10T13:14:34.659Z,23.05
2022-11-10T13:15:47.085Z,23.35
2022-11-10T13:16:57.006Z,21.95
2022-11-10T13:18:00.898Z,23.50
2022-11-10T13:19:15.284Z,22.65
2022-11-10T13:20:47.126Z,22.15
2022-11-10T13:21:53.737Z,22.60
2022-11-10T13:22:56.769Z,22.23
2022-11-10T13:24:03.679Z,21.45
2022-11-10T13:25:39.706Z,22.80
2022-11-10T13:26:45.333Z,21.35
2022-11-10T13:27:47.911Z,20.23
2022-11-10T13:28:57.170Z,23.08
2022-11-10T13:30:00.391Z,21.33
2022-11-10T13:31:28.362Z,20.42
2022-11-10T13:32:32.477Z,21.73
2022-11-10T13:33:37.611Z,21.08
2022-11-10T13:34:45.432Z,22.40
2022-11-10T13:35:55.490Z,22.58
2022-11-10T13:36:58.868Z,21.73
2022-11-10T13:38:01.058Z,23.02
2022-11-10T13:39:19.579Z,21.05
2022-11-10T13:40:24.843Z,21.98
2022-11-10T13:41:27.813Z,22.88
2022-11-10T13:42:30.609Z,22.33
2022-11-10T13:43:36.614Z,23.63
2022-11-10T13:44:48.227Z,24.80
2022-11-10T13:46:00.901Z,23.73
2022-11-10T13:47:09.501Z,25.90
2022-11-10T13:48:11.950Z,24.05
2022-11-10T13:49:22.297Z,26.70
2022-11-10T13:50:56.405Z,25.00
2022-11-10T13:52:08.513Z,23.95
2022-11-10T13:53:28.692Z,24.55
2022-11-10T13:54:57.037Z,25.77
2022-11-10T13:56:04.510Z,24.85
2022-11-10T13:57:31.985Z,24.40
2022-11-10T13:58:37.000Z,25.27
2022-11-10T13:59:58.361Z,25.20
2022-11-10T14:01:19.054Z,24.20
2022-11-10T14:02:42.153Z,24.67
2022-11-10T14:03:50.358Z,23.90
2022-11-10T14:04:52.370Z,24.63
2022-11-10T14:06:06.447Z,24.33
2022-11-10T14:07:18.661Z,24.25
2022-11-10T14:08:26.408Z,24.33
2022-11-10T14:09:40.091Z,24.17
2022-11-10T14:11:04.210Z,23.73
2022-11-10T14:12:16.252Z,24.13
2022-11-10T14:13:40.632Z,25.13
2022-11-10T14:15:00.883Z,25.55
2022-11-10T14:16:31.471Z,24.40
2022-11-10T14:17:40.269Z,25.10
2022-11-10T14:19:06.882Z,25.58
2022-11-10T14:20:50.889Z,24.67
2022-11-10T14:22:01.783Z,24.73
2022-11-10T14:23:08.142Z,25.38
2022-11-10T14:24:37.010Z,25.98
2022-11-10T14:25:43.179Z,24.52
2022-11-10T14:26:52.297Z,26.08
2022-11-10T14:27:58.421Z,26.75
2022-11-10T14:29:28.454Z,26.90
2022-11-10T14:30:33.794Z,24.85
2022-11-10T14:31:46.723Z,26.85
2022-11-10T14:33:01.528Z,26.33
2022-11-10T14:34:03.572Z,26.40
2022-11-10T14:35:21.273Z,27.45
2022-11-10T14:36:26.147Z,26.63
2022-11-10T14:37:30.282Z,26.70
2022-11-10T14:38:35.988Z,26.77
2022-11-10T14:41:01.882Z,28.17
2022-11-10T14:42:06.735Z,28.00
2022-11-10T14:43:38.203Z,32.88
2022-11-10T14:44:40.804Z,38.10
2022-11-10T14:45:51.333Z,37.53
2022-11-10T14:46:54.917Z,37.60
2022-11-10T14:48:00.418Z,38.53
2022-11-10T14:49:05.050Z,37.42
2022-11-10T14:50:28.645Z,36.47
2022-11-10T14:51:30.744Z,34.72
2022-11-10T14:52:39.214Z,34.33
2022-11-10T14:53:49.821Z,32.53
2022-11-10T14:54:51.789Z,32.58
2022-11-10T14:55:55.061Z,30.38
2022-11-10T14:56:59.857Z,30.75
2022-11-10T14:58:26.273Z,30.38
2022-11-10T14:59:29.440Z,30.00
2022-11-10T15:00:36.757Z,29.15
2022-11-10T15:01:42.346Z,27.35
2022-11-10T15:02:47.605Z,28.65
2022-11-10T15:03:49.778Z,27.95
2022-11-10T15:04:52.096Z,26.75
2022-11-10T15:05:54.549Z,26.17
2022-11-10T15:06:59.631Z,27.15
2022-11-10T15:08:04.634Z,25.30
2022-11-10T15:09:24.007Z,24.35
2022-11-10T15:10:45.129Z,23.70
2022-11-10T15:12:06.602Z,24.67
2022-11-10T15:13:14.606Z,23.58
2022-11-10T15:14:45.677Z,24.60
2022-11-10T15:15:47.842Z,26.20
2022-11-10T15:17:15.789Z,25.15
2022-11-10T15:18:29.331Z,25.45
2022-11-10T15:19:35.786Z,26.23
2022-11-10T15:20:40.208Z,26.38
2022-11-10T15:21:42.255Z,28.27
2022-11-10T15:22:44.037Z,27.50
2022-11-10T15:24:00.019Z,26.38
2022-11-10T15:25:15.134Z,26.63
2022-11-10T15:26:29.372Z,26.88
2022-11-10T15:27:32.482Z,26.08
2022-11-10T15:28:36.186Z,25.42
2022-11-10T15:29:38.298Z,24.92
2022-11-10T15:30:53.150Z,24.58
2022-11-10T15:31:55.517Z,24.20
2022-11-10T15:33:02.087Z,26.10
2022-11-10T15:34:06.133Z,24.10
2022-11-10T15:35:30.239Z,25.75
2022-11-10T15:36:39.640Z,26.60
2022-11-10T15:37:41.791Z,24.27
2022-11-10T15:38:43.993Z,26.42
2022-11-10T15:39:46.250Z,26.08
2022-11-10T15:40:50.211Z,24.48
2022-11-10T15:41:59.901Z,25.60
2022-11-10T15:43:10.856Z,25.63
2022-11-10T15:44:29.882Z,26.73
2022-11-10T15:45:31.869Z,26.30
2022-11-10T15:46:33.728Z,24.55
2022-11-10T15:47:35.817Z,25.80
2022-11-10T15:49:00.817Z,26.08
2022-11-10T15:50:02.738Z,26.50
2022-11-10T15:51:05.133Z,27.38
2022-11-10T15:52:15.231Z,26.23
2022-11-10T15:53:23.367Z,25.70
2022-11-10T15:54:29.502Z,26.08
2022-11-10T15:55:34.633Z,24.25
2022-11-10T15:56:36.559Z,23.85
2022-11-10T15:57:38.523Z,23.08
2022-11-10T15:58:40.920Z,22.13
2022-11-10T15:59:43.727Z,22.27
2022-11-10T16:00:47.599Z,22.73
2022-11-10T16:01:51.524Z,23.10
2022-11-10T16:02:53.698Z,22.77
2022-11-10T16:03:59.233Z,22.25
2022-11-10T16:05:24.842Z,23.23
2022-11-10T16:06:31.886Z,24.33
2022-11-10T16:07:33.694Z,23.23
2022-11-10T16:08:35.750Z,23.30
2022-11-10T16:09:37.655Z,23.60
2022-11-10T16:10:44.251Z,26.55
2022-11-10T16:11:56.903Z,24.77
2022-11-10T16:13:02.057Z,23.08
2022-11-10T16:14:11.377Z,22.98
2022-11-10T16:15:39.479Z,23.38
2022-11-10T16:16:43.598Z,21.98
2022-11-10T16:17:47.795Z,23.10
2022-11-10T16:18:55.368Z,23.52
2022-11-10T16:19:57.284Z,21.65
2022-11-10T16:20:59.410Z,23.15
2022-11-10T16:22:08.029Z,23.00
2022-11-10T16:23:10.727Z,22.65
2022-11-10T16:24:12.976Z,24.55
2022-11-10T16:25:21.556Z,22.50
2022-11-10T16:26:28.522Z,22.95
2022-11-10T16:27:41.489Z,23.02
2022-11-10T16:28:47.911Z,23.55
2022-11-10T16:29:50.383Z,21.80
2022-11-10T16:30:57.882Z,21.70
2022-11-10T16:32:04.924Z,22.17
2022-11-10T16:33:07.215Z,23.63
2022-11-10T16:34:13.900Z,22.17
2022-11-10T16:35:21.244Z,21.80
2022-11-10T16:36:35.987Z,21.75
2022-11-10T16:37:54.682Z,23.75
2022-11-10T16:39:01.758Z,22.25
2022-11-10T16:40:17.821Z,21.08
2022-11-10T16:41:27.278Z,21.15
2022-11-10T16:42:44.077Z,22.15
2022-11-10T16:43:46.948Z,21.33
2022-11-10T16:44:49.541Z,22.10
2022-11-10T16:45:56.204Z,21.00
2022-11-10T16:46:58.631Z,20.10
2022-11-10T16:48:05.023Z,21.92
2022-11-10T16:49:37.447Z,21.60
2022-11-10T16:50:39.350Z,20.58
2022-11-10T16:51:49.194Z,21.00
2022-11-10T16:52:51.214Z,20.58
2022-11-10T16:53:53.866Z,20.92
2022-11-10T16:54:55.752Z,21.73
2022-11-10T16:55:59.714Z,23.02
2022-11-10T16:57:02.380Z,23.25
2022-11-10T16:58:05.049Z,24.10
2022-11-10T16:59:07.382Z,24.80
2022-11-10T17:00:13.361Z,26.15
2022-11-10T17:01:23.134Z,27.38
2022-11-10T17:02:33.853Z,28.15
2022-11-10T17:03:46.575Z,27.73
2022-11-10T17:04:48.819Z,26.80
2022-11-10T17:05:50.891Z,26.08
2022-11-10T17:06:54.709Z,21.10
2022-11-10T17:07:58.868Z,20.85